sensor_id;sensor_type;location;lat;lon;timestamp;temperature;humidity
66586;SHT30;53444;45.822;16.092;2023-10-09T00:01:51;13.53;74.36
66586;SHT30;53444;45.822;16.092;2023-10-09T00:04:19;13.27;75.03
66586;SHT30;53444;45.822;16.092;2023-10-09T00:06:47;13.52;74.89
66586;SHT30;53444;45.822;16.092;2023-10-09T00:09:14;13.53;75.06
66586;SHT30;53444;45.822;16.092;2023-10-09T00:12:00;13.59;74.85
66586;SHT30;53444;45.822;16.092;2023-10-09T00:14:30;13.56;74.57
66586;SHT30;53444;45.822;16.092;2023-10-09T00:16:58;13.50;74.70
66586;SHT30;53444;45.822;16.092;2023-10-09T00:19:44;13.62;74.72
66586;SHT30;53444;45.822;16.092;2023-10-09T00:22:11;13.70;74.89
66586;SHT30;53444;45.822;16.092;2023-10-09T00:24:51;13.56;74.94
66586;SHT30;53444;45.822;16.092;2023-10-09T00:27:37;13.46;75.21
66586;SHT30;53444;45.822;16.092;2023-10-09T00:30:07;13.43;75.39
66586;SHT30;53444;45.822;16.092;2023-10-09T00:32:35;13.30;76.01
66586;SHT30;53444;45.822;16.092;2023-10-09T00:35:03;13.40;76.00
66586;SHT30;53444;45.822;16.092;2023-10-09T00:38:00;13.33;75.82
66586;SHT30;53444;45.822;16.092;2023-10-09T00:40:32;13.19;76.17
66586;SHT30;53444;45.822;16.092;2023-10-09T00:43:04;13.24;75.76
66586;SHT30;53444;45.822;16.092;2023-10-09T00:45:38;13.30;75.55
66586;SHT30;53444;45.822;16.092;2023-10-09T00:48:06;13.32;75.81
66586;SHT30;53444;45.822;16.092;2023-10-09T00:50:34;13.15;76.28
66586;SHT30;53444;45.822;16.092;2023-10-09T00:53:04;13.11;76.38
66586;SHT30;53444;45.822;16.092;2023-10-09T00:55:44;13.29;75.67
66586;SHT30;53444;45.822;16.092;2023-10-09T00:58:22;13.20;76.06
66586;SHT30;53444;45.822;16.092;2023-10-09T01:00:56;13.02;76.59
66586;SHT30;53444;45.822;16.092;2023-10-09T01:03:25;13.08;76.56
66586;SHT30;53444;45.822;16.092;2023-10-09T01:05:55;13.16;75.81
66586;SHT30;53444;45.822;16.092;2023-10-09T01:08:23;13.32;75.37
66586;SHT30;53444;45.822;16.092;2023-10-09T01:10:56;13.35;75.30
66586;SHT30;53444;45.822;16.092;2023-10-09T01:13:35;13.24;75.39
66586;SHT30;53444;45.822;16.092;2023-10-09T01:16:19;13.30;75.66
66586;SHT30;53444;45.822;16.092;2023-10-09T01:18:48;13.29;75.70
66586;SHT30;53444;45.822;16.092;2023-10-09T01:21:15;13.30;75.79
66586;SHT30;53444;45.822;16.092;2023-10-09T01:23:45;13.15;76.64
66586;SHT30;53444;45.822;16.092;2023-10-09T01:26:28;13.05;76.30
66586;SHT30;53444;45.822;16.092;2023-10-09T01:28:57;13.02;76.47
66586;SHT30;53444;45.822;16.092;2023-10-09T01:31:26;13.19;76.17
66586;SHT30;53444;45.822;16.092;2023-10-09T01:33:52;13.30;75.63
66586;SHT30;53444;45.822;16.092;2023-10-09T01:36:24;13.33;76.47
66586;SHT30;53444;45.822;16.092;2023-10-09T01:38:59;13.35;76.31
66586;SHT30;53444;45.822;16.092;2023-10-09T01:41:26;13.13;76.60
66586;SHT30;53444;45.822;16.092;2023-10-09T01:43:53;12.98;76.87
66586;SHT30;53444;45.822;16.092;2023-10-09T01:46:26;13.13;76.62
66586;SHT30;53444;45.822;16.092;2023-10-09T01:48:52;13.24;76.69
66586;SHT30;53444;45.822;16.092;2023-10-09T01:51:20;12.99;76.39
66586;SHT30;53444;45.822;16.092;2023-10-09T01:53:46;12.95;76.83
66586;SHT30;53444;45.822;16.092;2023-10-09T01:56:21;12.80;77.13
66586;SHT30;53444;45.822;16.092;2023-10-09T01:58:48;12.68;77.30
66586;SHT30;53444;45.822;16.092;2023-10-09T02:01:15;12.88;77.05
66586;SHT30;53444;45.822;16.092;2023-10-09T02:03:42;13.11;76.43
66586;SHT30;53444;45.822;16.092;2023-10-09T02:06:10;13.09;76.55
66586;SHT30;53444;45.822;16.092;2023-10-09T02:08:56;13.05;76.83
66586;SHT30;53444;45.822;16.092;2023-10-09T02:11:24;13.26;75.64
66586;SHT30;53444;45.822;16.092;2023-10-09T02:14:03;13.09;76.34
66586;SHT30;53444;45.822;16.092;2023-10-09T02:16:41;13.15;75.69
66586;SHT30;53444;45.822;16.092;2023-10-09T02:19:08;13.19;75.71
66586;SHT30;53444;45.822;16.092;2023-10-09T02:21:54;13.18;75.93
66586;SHT30;53444;45.822;16.092;2023-10-09T02:24:22;13.35;75.46
66586;SHT30;53444;45.822;16.092;2023-10-09T02:27:09;13.33;74.91
66586;SHT30;53444;45.822;16.092;2023-10-09T02:29:38;13.20;74.93
66586;SHT30;53444;45.822;16.092;2023-10-09T02:32:07;13.11;75.79
66586;SHT30;53444;45.822;16.092;2023-10-09T02:34:50;13.16;75.51
66586;SHT30;53444;45.822;16.092;2023-10-09T02:37:19;13.18;75.32
66586;SHT30;53444;45.822;16.092;2023-10-09T02:39:48;13.23;75.43
66586;SHT30;53444;45.822;16.092;2023-10-09T02:42:19;13.27;75.57
66586;SHT30;53444;45.822;16.092;2023-10-09T02:44:48;13.29;75.87
66586;SHT30;53444;45.822;16.092;2023-10-09T02:47:17;13.33;75.78
66586;SHT30;53444;45.822;16.092;2023-10-09T02:49:46;13.33;76.26
66586;SHT30;53444;45.822;16.092;2023-10-09T02:52:15;13.42;76.56
66586;SHT30;53444;45.822;16.092;2023-10-09T02:54:44;13.30;77.66
66586;SHT30;53444;45.822;16.092;2023-10-09T02:57:12;13.27;78.23
66586;SHT30;53444;45.822;16.092;2023-10-09T02:59:49;13.15;78.39
66586;SHT30;53444;45.822;16.092;2023-10-09T03:04:51;12.89;79.73
66586;SHT30;53444;45.822;16.092;2023-10-09T03:07:20;13.01;79.58
66586;SHT30;53444;45.822;16.092;2023-10-09T03:09:49;13.15;79.42
66586;SHT30;53444;45.822;16.092;2023-10-09T03:12:15;13.13;79.18
66586;SHT30;53444;45.822;16.092;2023-10-09T03:14:44;13.19;78.94
66586;SHT30;53444;45.822;16.092;2023-10-09T03:17:12;13.18;78.65
66586;SHT30;53444;45.822;16.092;2023-10-09T03:19:39;13.20;78.26
66586;SHT30;53444;45.822;16.092;2023-10-09T03:24:36;13.16;77.99
66586;SHT30;53444;45.822;16.092;2023-10-09T03:27:03;12.55;80.91
66586;SHT30;53444;45.822;16.092;2023-10-09T03:29:30;12.57;81.62
66586;SHT30;53444;45.822;16.092;2023-10-09T03:31:57;12.51;81.67
66586;SHT30;53444;45.822;16.092;2023-10-09T03:34:26;12.64;80.63
66586;SHT30;53444;45.822;16.092;2023-10-09T03:36:56;12.58;80.79
66586;SHT30;53444;45.822;16.092;2023-10-09T03:39:29;12.71;80.27
66586;SHT30;53444;45.822;16.092;2023-10-09T03:42:06;12.60;80.74
66586;SHT30;53444;45.822;16.092;2023-10-09T03:44:44;12.62;80.49
66586;SHT30;53444;45.822;16.092;2023-10-09T03:47:15;12.51;81.43
66586;SHT30;53444;45.822;16.092;2023-10-09T03:49:43;11.89;83.04
66586;SHT30;53444;45.822;16.092;2023-10-09T03:52:10;12.03;82.65
66586;SHT30;53444;45.822;16.092;2023-10-09T03:54:42;11.61;84.73
66586;SHT30;53444;45.822;16.092;2023-10-09T03:57:10;11.56;85.02
66586;SHT30;53444;45.822;16.092;2023-10-09T03:59:36;11.58;84.85
66586;SHT30;53444;45.822;16.092;2023-10-09T04:02:03;11.76;84.18
66586;SHT30;53444;45.822;16.092;2023-10-09T04:04:30;11.97;83.27
66586;SHT30;53444;45.822;16.092;2023-10-09T04:07:00;12.03;83.16
66586;SHT30;53444;45.822;16.092;2023-10-09T04:09:26;11.89;83.34
66586;SHT30;53444;45.822;16.092;2023-10-09T04:12:05;11.99;83.10
66586;SHT30;53444;45.822;16.092;2023-10-09T04:14:54;11.85;83.61
66586;SHT30;53444;45.822;16.092;2023-10-09T04:17:23;11.93;83.03
66586;SHT30;53444;45.822;16.092;2023-10-09T04:19:59;11.83;83.24
66586;SHT30;53444;45.822;16.092;2023-10-09T04:22:41;11.86;83.20
66586;SHT30;53444;45.822;16.092;2023-10-09T04:25:15;11.86;83.16
66586;SHT30;53444;45.822;16.092;2023-10-09T04:27:46;11.96;83.00
66586;SHT30;53444;45.822;16.092;2023-10-09T04:30:12;11.85;83.59
66586;SHT30;53444;45.822;16.092;2023-10-09T04:32:41;11.91;83.40
66586;SHT30;53444;45.822;16.092;2023-10-09T04:35:10;12.03;83.18
66586;SHT30;53444;45.822;16.092;2023-10-09T04:37:50;12.07;83.05
66586;SHT30;53444;45.822;16.092;2023-10-09T04:40:17;12.06;82.91
66586;SHT30;53444;45.822;16.092;2023-10-09T04:43:06;12.00;83.12
66586;SHT30;53444;45.822;16.092;2023-10-09T04:45:35;11.94;83.60
66586;SHT30;53444;45.822;16.092;2023-10-09T04:48:22;12.00;83.24
66586;SHT30;53444;45.822;16.092;2023-10-09T04:51:03;11.65;84.75
66586;SHT30;53444;45.822;16.092;2023-10-09T04:53:48;11.68;84.76
66586;SHT30;53444;45.822;16.092;2023-10-09T04:56:25;11.85;84.36
66586;SHT30;53444;45.822;16.092;2023-10-09T04:58:57;11.91;83.65
66586;SHT30;53444;45.822;16.092;2023-10-09T05:01:29;11.76;84.11
66586;SHT30;53444;45.822;16.092;2023-10-09T05:04:04;11.55;85.13
66586;SHT30;53444;45.822;16.092;2023-10-09T05:06:48;11.56;85.04
66586;SHT30;53444;45.822;16.092;2023-10-09T05:09:22;11.56;84.85
66586;SHT30;53444;45.822;16.092;2023-10-09T05:11:49;11.54;85.09
66586;SHT30;53444;45.822;16.092;2023-10-09T05:14:41;11.55;85.25
66586;SHT30;53444;45.822;16.092;2023-10-09T05:17:19;11.35;86.05
66586;SHT30;53444;45.822;16.092;2023-10-09T05:19:50;11.52;85.61
66586;SHT30;53444;45.822;16.092;2023-10-09T05:22:43;11.79;84.61
66586;SHT30;53444;45.822;16.092;2023-10-09T05:25:24;11.90;84.37
66586;SHT30;53444;45.822;16.092;2023-10-09T05:28:07;11.90;84.55
66586;SHT30;53444;45.822;16.092;2023-10-09T05:30:48;11.73;84.73
66586;SHT30;53444;45.822;16.092;2023-10-09T05:33:20;11.63;85.02
66586;SHT30;53444;45.822;16.092;2023-10-09T05:35:59;11.79;84.57
66586;SHT30;53444;45.822;16.092;2023-10-09T05:38:42;11.63;84.70
66586;SHT30;53444;45.822;16.092;2023-10-09T05:41:13;11.94;83.90
66586;SHT30;53444;45.822;16.092;2023-10-09T05:44:12;12.13;83.31
66586;SHT30;53444;45.822;16.092;2023-10-09T05:46:59;12.17;82.67
66586;SHT30;53444;45.822;16.092;2023-10-09T05:49:43;12.34;82.03
66586;SHT30;53444;45.822;16.092;2023-10-09T05:52:19;12.19;82.90
66586;SHT30;53444;45.822;16.092;2023-10-09T05:55:12;11.86;83.77
66586;SHT30;53444;45.822;16.092;2023-10-09T05:58:03;12.16;82.55
66586;SHT30;53444;45.822;16.092;2023-10-09T06:00:47;12.37;82.16
66586;SHT30;53444;45.822;16.092;2023-10-09T06:03:52;12.51;80.91
66586;SHT30;53444;45.822;16.092;2023-10-09T06:06:29;12.62;80.11
66586;SHT30;53444;45.822;16.092;2023-10-09T06:09:00;12.60;80.38
66586;SHT30;53444;45.822;16.092;2023-10-09T06:11:46;12.21;81.58
66586;SHT30;53444;45.822;16.092;2023-10-09T06:14:22;12.36;81.46
66586;SHT30;53444;45.822;16.092;2023-10-09T06:16:51;12.60;80.81
66586;SHT30;53444;45.822;16.092;2023-10-09T06:19:51;12.62;80.95
66586;SHT30;53444;45.822;16.092;2023-10-09T06:22:24;12.62;81.34
66586;SHT30;53444;45.822;16.092;2023-10-09T06:25:11;12.65;81.55
66586;SHT30;53444;45.822;16.092;2023-10-09T06:27:42;12.60;81.92
66586;SHT30;53444;45.822;16.092;2023-10-09T06:30:28;12.68;81.74
66586;SHT30;53444;45.822;16.092;2023-10-09T06:32:54;12.62;81.96
66586;SHT30;53444;45.822;16.092;2023-10-09T06:35:46;12.69;81.08
66586;SHT30;53444;45.822;16.092;2023-10-09T06:38:19;12.54;81.59
66586;SHT30;53444;45.822;16.092;2023-10-09T06:40:53;12.42;82.48
66586;SHT30;53444;45.822;16.092;2023-10-09T06:43:42;12.44;83.06
66586;SHT30;53444;45.822;16.092;2023-10-09T06:46:19;12.51;82.51
66586;SHT30;53444;45.822;16.092;2023-10-09T06:49:09;12.68;82.09
66586;SHT30;53444;45.822;16.092;2023-10-09T06:51:52;12.82;80.93
66586;SHT30;53444;45.822;16.092;2023-10-09T06:54:21;12.65;81.61
66586;SHT30;53444;45.822;16.092;2023-10-09T06:56:51;12.67;81.33
66586;SHT30;53444;45.822;16.092;2023-10-09T06:59:37;13.08;80.16
66586;SHT30;53444;45.822;16.092;2023-10-09T07:02:25;13.16;78.46
66586;SHT30;53444;45.822;16.092;2023-10-09T07:04:52;13.38;78.23
66586;SHT30;53444;45.822;16.092;2023-10-09T07:07:21;13.23;75.57
66586;SHT30;53444;45.822;16.092;2023-10-09T07:09:51;12.87;76.90
66586;SHT30;53444;45.822;16.092;2023-10-09T07:12:35;13.26;76.59
66586;SHT30;53444;45.822;16.092;2023-10-09T07:15:08;13.29;76.35
66586;SHT30;53444;45.822;16.092;2023-10-09T07:17:54;13.32;77.55
66586;SHT30;53444;45.822;16.092;2023-10-09T07:20:21;13.05;77.74
66586;SHT30;53444;45.822;16.092;2023-10-09T07:24:17;13.30;76.13
66586;SHT30;53444;45.822;16.092;2023-10-09T07:26:49;13.47;76.51
66586;SHT30;53444;45.822;16.092;2023-10-09T07:29:19;13.46;76.33
66586;SHT30;53444;45.822;16.092;2023-10-09T07:32:05;13.40;77.11
66586;SHT30;53444;45.822;16.092;2023-10-09T07:34:43;13.44;77.45
66586;SHT30;53444;45.822;16.092;2023-10-09T07:37:47;13.97;76.26
66586;SHT30;53444;45.822;16.092;2023-10-09T07:40:17;14.24;75.87
66586;SHT30;53444;45.822;16.092;2023-10-09T07:43:20;13.75;76.77
66586;SHT30;53444;45.822;16.092;2023-10-09T07:49:56;13.66;77.42
66586;SHT30;53444;45.822;16.092;2023-10-09T07:52:27;13.83;76.43
66586;SHT30;53444;45.822;16.092;2023-10-09T07:55:38;13.97;76.05
66586;SHT30;53444;45.822;16.092;2023-10-09T07:58:22;14.05;75.10
66586;SHT30;53444;45.822;16.092;2023-10-09T08:00:52;13.77;75.65
66586;SHT30;53444;45.822;16.092;2023-10-09T08:04:05;14.24;75.30
66586;SHT30;53444;45.822;16.092;2023-10-09T08:07:03;14.44;74.90
66586;SHT30;53444;45.822;16.092;2023-10-09T08:09:43;14.52;73.89
66586;SHT30;53444;45.822;16.092;2023-10-09T08:12:44;14.29;73.53
66586;SHT30;53444;45.822;16.092;2023-10-09T08:16:37;14.39;74.19
66586;SHT30;53444;45.822;16.092;2023-10-09T08:19:19;14.69;73.24
66586;SHT30;53444;45.822;16.092;2023-10-09T08:22:37;14.54;73.65
66586;SHT30;53444;45.822;16.092;2023-10-09T08:25:11;14.42;74.62
66586;SHT30;53444;45.822;16.092;2023-10-09T08:28:40;14.68;73.36
66586;SHT30;53444;45.822;16.092;2023-10-09T08:31:40;14.69;73.14
66586;SHT30;53444;45.822;16.092;2023-10-09T08:34:48;14.58;73.88
66586;SHT30;53444;45.822;16.092;2023-10-09T08:57:25;15.22;71.91
66586;SHT30;53444;45.822;16.092;2023-10-09T09:00:30;15.24;70.08
66586;SHT30;53444;45.822;16.092;2023-10-09T09:03:19;15.11;71.91
66586;SHT30;53444;45.822;16.092;2023-10-09T09:05:48;15.07;70.82
66586;SHT30;53444;45.822;16.092;2023-10-09T09:11:40;15.81;69.54
66586;SHT30;53444;45.822;16.092;2023-10-09T09:14:16;16.09;69.53
66586;SHT30;53444;45.822;16.092;2023-10-09T09:17:00;16.59;68.82
66586;SHT30;53444;45.822;16.092;2023-10-09T09:19:33;16.28;68.16
66586;SHT30;53444;45.822;16.092;2023-10-09T09:22:07;16.01;67.99
66586;SHT30;53444;45.822;16.092;2023-10-09T09:24:40;15.78;68.46
66586;SHT30;53444;45.822;16.092;2023-10-09T09:27:44;16.12;68.65
66586;SHT30;53444;45.822;16.092;2023-10-09T09:30:35;16.19;68.25
66586;SHT30;53444;45.822;16.092;2023-10-09T09:33:17;16.34;68.26
66586;SHT30;53444;45.822;16.092;2023-10-09T09:36:05;16.16;67.72
66586;SHT30;53444;45.822;16.092;2023-10-09T09:38:33;16.29;67.93
66586;SHT30;53444;45.822;16.092;2023-10-09T09:41:37;16.42;67.79
66586;SHT30;53444;45.822;16.092;2023-10-09T09:44:13;16.69;67.06
66586;SHT30;53444;45.822;16.092;2023-10-09T09:47:05;16.88;67.12
66586;SHT30;53444;45.822;16.092;2023-10-09T09:49:32;16.76;66.94
66586;SHT30;53444;45.822;16.092;2023-10-09T09:52:04;17.14;67.62
66586;SHT30;53444;45.822;16.092;2023-10-09T09:54:38;16.94;68.09
66586;SHT30;53444;45.822;16.092;2023-10-09T09:57:13;17.25;66.78
66586;SHT30;53444;45.822;16.092;2023-10-09T09:59:57;16.85;68.31
66586;SHT30;53444;45.822;16.092;2023-10-09T10:02:57;16.91;68.11
66586;SHT30;53444;45.822;16.092;2023-10-09T10:05:27;16.83;68.28
66586;SHT30;53444;45.822;16.092;2023-10-09T10:07:59;17.31;67.27
66586;SHT30;53444;45.822;16.092;2023-10-09T10:10:46;17.07;68.06
66586;SHT30;53444;45.822;16.092;2023-10-09T10:17:00;17.11;68.59
66586;SHT30;53444;45.822;16.092;2023-10-09T10:23:16;17.08;68.82
66586;SHT30;53444;45.822;16.092;2023-10-09T10:25:51;17.22;67.85
66586;SHT30;53444;45.822;16.092;2023-10-09T10:32:03;17.99;66.35
66586;SHT30;53444;45.822;16.092;2023-10-09T10:43:49;18.37;65.54
66586;SHT30;53444;45.822;16.092;2023-10-09T10:46:27;18.21;65.57
66586;SHT30;53444;45.822;16.092;2023-10-09T10:49:14;17.86;65.32
66586;SHT30;53444;45.822;16.092;2023-10-09T10:51:46;18.69;64.76
66586;SHT30;53444;45.822;16.092;2023-10-09T10:54:22;19.01;64.36
66586;SHT30;53444;45.822;16.092;2023-10-09T10:57:20;18.61;64.02
66586;SHT30;53444;45.822;16.092;2023-10-09T10:59:58;17.99;65.60
66586;SHT30;53444;45.822;16.092;2023-10-09T11:02:53;18.62;64.92
66586;SHT30;53444;45.822;16.092;2023-10-09T11:08:24;19.23;63.59
66586;SHT30;53444;45.822;16.092;2023-10-09T11:11:15;19.01;63.47
66586;SHT30;53444;45.822;16.092;2023-10-09T11:13:47;19.06;63.92
66586;SHT30;53444;45.822;16.092;2023-10-09T11:16:36;19.03;63.77
66586;SHT30;53444;45.822;16.092;2023-10-09T11:19:21;19.32;63.43
66586;SHT30;53444;45.822;16.092;2023-10-09T11:22:18;19.62;62.71
66586;SHT30;53444;45.822;16.092;2023-10-09T11:25:01;19.36;63.82
66586;SHT30;53444;45.822;16.092;2023-10-09T11:27:54;20.27;62.06
66586;SHT30;53444;45.822;16.092;2023-10-09T11:33:54;20.72;61.29
66586;SHT30;53444;45.822;16.092;2023-10-09T11:37:18;20.69;61.75
66586;SHT30;53444;45.822;16.092;2023-10-09T11:40:37;20.73;60.64
66586;SHT30;53444;45.822;16.092;2023-10-09T11:43:27;20.86;62.06
66586;SHT30;53444;45.822;16.092;2023-10-09T11:46:21;20.85;61.10
66586;SHT30;53444;45.822;16.092;2023-10-09T11:49:13;22.05;58.84
66586;SHT30;53444;45.822;16.092;2023-10-09T11:52:21;22.61;57.43
66586;SHT30;53444;45.822;16.092;2023-10-09T11:58:14;21.50;59.85
66586;SHT30;53444;45.822;16.092;2023-10-09T12:00:56;21.27;60.54
66586;SHT30;53444;45.822;16.092;2023-10-09T12:03:39;21.02;61.24
66586;SHT30;53444;45.822;16.092;2023-10-09T12:06:17;21.50;59.61
66586;SHT30;53444;45.822;16.092;2023-10-09T12:09:06;21.99;59.33
66586;SHT30;53444;45.822;16.092;2023-10-09T12:11:52;22.19;58.12
66586;SHT30;53444;45.822;16.092;2023-10-09T12:15:02;21.47;61.04
66586;SHT30;53444;45.822;16.092;2023-10-09T12:31:33;21.77;60.37
66586;SHT30;53444;45.822;16.092;2023-10-09T12:34:15;22.57;57.58
66586;SHT30;53444;45.822;16.092;2023-10-09T12:37:57;23.25;58.10
66586;SHT30;53444;45.822;16.092;2023-10-09T12:40:37;23.34;57.95
66586;SHT30;53444;45.822;16.092;2023-10-09T12:48:23;24.46;54.47
66586;SHT30;53444;45.822;16.092;2023-10-09T12:51:56;25.05;53.79
66586;SHT30;53444;45.822;16.092;2023-10-09T12:54:08;25.39;53.00
66586;SHT30;53444;45.822;16.092;2023-10-09T12:56:35;24.81;53.72
66586;SHT30;53444;45.822;16.092;2023-10-09T13:00:59;23.85;55.94
66586;SHT30;53444;45.822;16.092;2023-10-09T13:02:23;23.37;56.39
66586;SHT30;53444;45.822;16.092;2023-10-09T13:04:56;24.49;55.98
66586;SHT30;53444;45.822;16.092;2023-10-09T13:07:23;24.98;53.43
66586;SHT30;53444;45.822;16.092;2023-10-09T13:09:53;24.34;54.35
66586;SHT30;53444;45.822;16.092;2023-10-09T13:13:14;24.09;55.67
66586;SHT30;53444;45.822;16.092;2023-10-09T13:15:44;25.21;54.31
66586;SHT30;53444;45.822;16.092;2023-10-09T13:18:11;25.22;53.21
66586;SHT30;53444;45.822;16.092;2023-10-09T13:20:47;23.58;57.11
66586;SHT30;53444;45.822;16.092;2023-10-09T13:23:20;23.44;57.18
66586;SHT30;53444;45.822;16.092;2023-10-09T13:26:41;24.08;55.69
66586;SHT30;53444;45.822;16.092;2023-10-09T13:31:50;23.75;57.08
66586;SHT30;53444;45.822;16.092;2023-10-09T13:34:26;24.74;55.43
66586;SHT30;53444;45.822;16.092;2023-10-09T13:37:05;24.92;54.30
66586;SHT30;53444;45.822;16.092;2023-10-09T13:40:12;24.09;56.24
66586;SHT30;53444;45.822;16.092;2023-10-09T13:46:02;24.87;54.71
66586;SHT30;53444;45.822;16.092;2023-10-09T13:48:52;25.35;53.51
66586;SHT30;53444;45.822;16.092;2023-10-09T13:51:19;26.01;52.66
66586;SHT30;53444;45.822;16.092;2023-10-09T13:53:53;26.54;51.66
66586;SHT30;53444;45.822;16.092;2023-10-09T13:56:32;25.67;52.36
66586;SHT30;53444;45.822;16.092;2023-10-09T13:59:37;25.50;53.33
66586;SHT30;53444;45.822;16.092;2023-10-09T14:02:23;26.18;52.63
66586;SHT30;53444;45.822;16.092;2023-10-09T14:05:05;27.05;51.22
66586;SHT30;53444;45.822;16.092;2023-10-09T14:07:48;27.15;51.02
66586;SHT30;53444;45.822;16.092;2023-10-09T14:16:41;27.03;49.98
66586;SHT30;53444;45.822;16.092;2023-10-09T14:20:04;25.79;53.17
66586;SHT30;53444;45.822;16.092;2023-10-09T14:23:11;25.58;53.78
66586;SHT30;53444;45.822;16.092;2023-10-09T14:25:57;24.87;54.95
66586;SHT30;53444;45.822;16.092;2023-10-09T14:28:36;24.65;55.93
66586;SHT30;53444;45.822;16.092;2023-10-09T14:31:15;24.78;55.95
66586;SHT30;53444;45.822;16.092;2023-10-09T14:36:31;24.67;56.19
66586;SHT30;53444;45.822;16.092;2023-10-09T14:42:36;23.72;58.00
66586;SHT30;53444;45.822;16.092;2023-10-09T14:45:20;23.47;59.11
66586;SHT30;53444;45.822;16.092;2023-10-09T14:48:15;23.11;59.46
66586;SHT30;53444;45.822;16.092;2023-10-09T14:51:27;22.91;59.91
66586;SHT30;53444;45.822;16.092;2023-10-09T14:54:21;22.86;60.20
66586;SHT30;53444;45.822;16.092;2023-10-09T14:59:26;22.67;61.07
66586;SHT30;53444;45.822;16.092;2023-10-09T15:05:48;22.18;62.30
66586;SHT30;53444;45.822;16.092;2023-10-09T15:12:01;22.01;63.12
66586;SHT30;53444;45.822;16.092;2023-10-09T15:14:52;21.82;63.50
66586;SHT30;53444;45.822;16.092;2023-10-09T15:17:25;21.75;63.83
66586;SHT30;53444;45.822;16.092;2023-10-09T15:20:27;21.68;64.18
66586;SHT30;53444;45.822;16.092;2023-10-09T15:22:57;21.55;64.97
66586;SHT30;53444;45.822;16.092;2023-10-09T15:25:27;21.61;64.30
66586;SHT30;53444;45.822;16.092;2023-10-09T15:28:09;21.59;64.24
66586;SHT30;53444;45.822;16.092;2023-10-09T15:30:48;21.53;64.77
66586;SHT30;53444;45.822;16.092;2023-10-09T15:36:14;21.28;65.73
66586;SHT30;53444;45.822;16.092;2023-10-09T15:38:43;21.28;65.92
66586;SHT30;53444;45.822;16.092;2023-10-09T15:41:09;21.23;66.28
66586;SHT30;53444;45.822;16.092;2023-10-09T15:43:39;21.19;66.40
66586;SHT30;53444;45.822;16.092;2023-10-09T15:46:38;21.14;66.47
66586;SHT30;53444;45.822;16.092;2023-10-09T15:49:47;21.10;67.20
66586;SHT30;53444;45.822;16.092;2023-10-09T15:52:15;21.00;67.52
66586;SHT30;53444;45.822;16.092;2023-10-09T15:54:56;20.95;67.91
66586;SHT30;53444;45.822;16.092;2023-10-09T15:57:32;20.86;68.37
66586;SHT30;53444;45.822;16.092;2023-10-09T16:00:01;20.75;69.17
66586;SHT30;53444;45.822;16.092;2023-10-09T16:02:31;20.80;69.29
66586;SHT30;53444;45.822;16.092;2023-10-09T16:04:58;20.71;69.95
66586;SHT30;53444;45.822;16.092;2023-10-09T16:07:34;20.55;70.44
66586;SHT30;53444;45.822;16.092;2023-10-09T16:10:03;20.49;70.72
66586;SHT30;53444;45.822;16.092;2023-10-09T16:12:39;20.48;71.00
66586;SHT30;53444;45.822;16.092;2023-10-09T16:15:11;20.41;70.86
66586;SHT30;53444;45.822;16.092;2023-10-09T16:17:40;20.41;70.58
66586;SHT30;53444;45.822;16.092;2023-10-09T16:20:10;20.38;70.62
66586;SHT30;53444;45.822;16.092;2023-10-09T16:22:47;20.42;70.56
66586;SHT30;53444;45.822;16.092;2023-10-09T16:25:15;20.24;71.11
66586;SHT30;53444;45.822;16.092;2023-10-09T16:27:48;20.28;71.00
66586;SHT30;53444;45.822;16.092;2023-10-09T16:30:19;20.31;71.15
66586;SHT30;53444;45.822;16.092;2023-10-09T16:32:49;20.32;71.22
66586;SHT30;53444;45.822;16.092;2023-10-09T16:35:18;20.22;71.75
66586;SHT30;53444;45.822;16.092;2023-10-09T16:37:47;20.22;71.80
66586;SHT30;53444;45.822;16.092;2023-10-09T16:40:15;20.21;71.74
66586;SHT30;53444;45.822;16.092;2023-10-09T16:42:46;20.08;72.38
66586;SHT30;53444;45.822;16.092;2023-10-09T16:45:15;20.04;72.39
66586;SHT30;53444;45.822;16.092;2023-10-09T16:47:46;19.93;72.92
66586;SHT30;53444;45.822;16.092;2023-10-09T16:50:14;19.93;72.98
66586;SHT30;53444;45.822;16.092;2023-10-09T16:52:43;19.80;73.51
66586;SHT30;53444;45.822;16.092;2023-10-09T16:55:11;19.74;73.65
66586;SHT30;53444;45.822;16.092;2023-10-09T16:57:45;19.71;73.93
66586;SHT30;53444;45.822;16.092;2023-10-09T17:00:16;19.67;74.15
66586;SHT30;53444;45.822;16.092;2023-10-09T17:02:55;19.74;73.97
66586;SHT30;53444;45.822;16.092;2023-10-09T17:05:24;19.71;73.99
66586;SHT30;53444;45.822;16.092;2023-10-09T17:07:59;19.67;74.09
66586;SHT30;53444;45.822;16.092;2023-10-09T17:10:27;19.62;74.23
66586;SHT30;53444;45.822;16.092;2023-10-09T17:12:57;19.52;74.73
66586;SHT30;53444;45.822;16.092;2023-10-09T17:15:28;19.52;74.61
66586;SHT30;53444;45.822;16.092;2023-10-09T17:18:15;19.42;74.87
66586;SHT30;53444;45.822;16.092;2023-10-09T17:20:49;19.35;75.25
66586;SHT30;53444;45.822;16.092;2023-10-09T17:23:35;19.45;74.81
66586;SHT30;53444;45.822;16.092;2023-10-09T17:26:11;19.39;74.92
66586;SHT30;53444;45.822;16.092;2023-10-09T17:28:44;19.39;74.86
66586;SHT30;53444;45.822;16.092;2023-10-09T17:31:13;19.35;74.91
66586;SHT30;53444;45.822;16.092;2023-10-09T17:33:48;19.29;75.00
66586;SHT30;53444;45.822;16.092;2023-10-09T17:36:38;19.22;75.04
66586;SHT30;53444;45.822;16.092;2023-10-09T17:39:09;19.19;75.46
66586;SHT30;53444;45.822;16.092;2023-10-09T17:41:42;19.20;75.38
66586;SHT30;53444;45.822;16.092;2023-10-09T17:44:11;19.22;75.19
66586;SHT30;53444;45.822;16.092;2023-10-09T17:46:42;19.26;75.01
66586;SHT30;53444;45.822;16.092;2023-10-09T17:49:12;19.23;75.06
66586;SHT30;53444;45.822;16.092;2023-10-09T17:55:10;19.20;75.28
66586;SHT30;53444;45.822;16.092;2023-10-09T18:00:17;19.13;75.13
66586;SHT30;53444;45.822;16.092;2023-10-09T18:12:20;18.91;75.68
66586;SHT30;53444;45.822;16.092;2023-10-09T18:16:00;18.87;75.61
66586;SHT30;53444;45.822;16.092;2023-10-09T18:18:40;18.89;75.85
66586;SHT30;53444;45.822;16.092;2023-10-09T18:21:09;18.84;76.18
66586;SHT30;53444;45.822;16.092;2023-10-09T18:23:38;18.61;76.60
66586;SHT30;53444;45.822;16.092;2023-10-09T18:26:34;18.62;76.74
66586;SHT30;53444;45.822;16.092;2023-10-09T18:40:21;18.57;76.61
66586;SHT30;53444;45.822;16.092;2023-10-09T19:20:29;18.30;77.33
66586;SHT30;53444;45.822;16.092;2023-10-09T19:36:56;18.26;77.79
66586;SHT30;53444;45.822;16.092;2023-10-09T19:39:26;18.21;77.88